CheckWX is a tool to help pilots better visualize weather data.  It is not intended as a substitute for an official pre-flight weather briefing.

02:18:20 UTC

LFCR TAF
Rodez-Marcillac Airport
Rodez/Marcillac, France
TAF LFCR 152300Z 1600/1624 VRB02KT CAVOK BECMG 1608/1610 31006KT BECMG 1619/1621 VRB02KT

Jul-16@
00:00 UTC

Jul-16 @ 00:00 UTC

Jul-16@
08:00 UTC

Jul-16 @ 08:00 UTC

TAF LFCR 152300Z 1600/1624 VRB02KT CAVOK
Wind
  • Variable at 2 KTS
Conditions
No significant weather
Cloud Levels
  • No significant clouds

Jul-16@
08:00 UTC

Jul-16 @ 08:00 UTC

Jul-16@
19:00 UTC

Jul-16 @ 19:00 UTC

BECMG 1608/1610 31006KT

Becoming

Becoming Conditions expected by Tue, Jul 16, 2019 @ 10:00 UTC

Wind
  • 310° at 6 KTS
Conditions
No significant weather
Cloud Levels
  • No significant clouds

Jul-16@
19:00 UTC

Jul-16 @ 19:00 UTC

Jul-17@
00:00 UTC

Jul-17 @ 00:00 UTC

BECMG 1619/1621 VRB02KT

Becoming

Becoming Conditions expected by Tue, Jul 16, 2019 @ 21:00 UTC

Wind
  • Variable at 2 KTS
Conditions
No significant weather
Cloud Levels
  • No significant clouds